Cozumel, Mexico

3:36 PM EST on February 09, 2016 (GMT -0500)
APRSWXNET | | Change Station
CLOSE
Current Station
Personal Weather Station
Location: Cozumel,
Elevation: 36 ft
Nearby Weather Stations

Elev 36 ft 20.51 °N, 86.93 °W | Updated 22 minutes ago

Mostly Cloudy
Mostly Cloudy
76 °F
Feels Like 78 °F
N
13
Wind Variable Wind from NW
Gusts 19.0 mph

Today
High -- | Low -- °F
--% Chance of Precip.
Yesterday
High -- | Low -- °F
Precip. -- in
Pressure 30.16 in
Visibility 7.0 miles
Clouds Mostly Cloudy 2000 ft
Mostly Cloudy 25000 ft
Heat Index 78 °F
Dew Point 57 °F
Humidity 51%
Rainfall in
Snow Depth Not available.
7:20 AM 6:43 PM
New Moon, 2% visible
METAR MMUN 091945Z 31016KT 7SM BKN020 BKN250 23/14 A3016 RMK 8/508 AC
Pressure 30.16 in
Visibility 7.0 miles
Clouds Mostly Cloudy 2000 ft
Mostly Cloudy 25000 ft
Heat Index 78 °F
Dew Point 57 °F
Humidity 51%
Rainfall in
Snow Depth Not available.
7:20 AM 6:43 PM
New Moon, 2% visible
METAR MMUN 091945Z 31016KT 7SM BKN020 BKN250 23/14 A3016 RMK 8/508 AC

10-Day Weather Forecast

No radar image for this location.
×

Almanac

Astronomy

Feb. 09, 2016 Rise Set
Actual Time
Civil Twilight
Nautical Twilight
Astronomical Twilight
Moon
Length of Visible Light
Length of Day
Tomorrow will be .
, % of the Moon is Illuminated

Today's Extremes

Country Highs Country Lows

Community

WunderPhotos

Upload Photos

1,891,679 photos uploaded!

WunderBlog® & News

Nearby

Air Quality

  Air Quality AQ Index Pollutant
Not available.

Snow Depth

Station Depth Elevation

Earthquake Activity

City Distance Mag. Time & Date
Minimum magnitude displayed is 2.5.

Coastal Water Temperatures

Place Temperature

Stations

Nearby Weather Stations

Station Location Temp. Windchill Dew Point Humidity Wind Precip. Elev Updated Type